createdAt,value
2022-08-05T00:00:46.399Z,4.20
2022-08-05T00:03:16.421Z,3.50
2022-08-05T00:06:04.801Z,3.80
2022-08-05T00:08:35.531Z,3.55
2022-08-05T00:11:30.328Z,3.33
2022-08-05T00:13:56.161Z,3.53
2022-08-05T00:16:35.282Z,3.40
2022-08-05T00:19:05.162Z,3.08
2022-08-05T00:21:35.763Z,2.90
2022-08-05T00:24:09.991Z,2.87
2022-08-05T00:26:39.413Z,2.60
2022-08-05T00:29:18.563Z,3.10
2022-08-05T00:32:10.656Z,2.60
2022-08-05T00:34:56.865Z,3.33
2022-08-05T00:37:50.891Z,3.22
2022-08-05T00:40:26.767Z,3.08
2022-08-05T00:42:58.405Z,3.47
2022-08-05T00:45:38.294Z,3.03
2022-08-05T00:48:08.098Z,3.80
2022-08-05T00:50:37.880Z,3.70
2022-08-05T00:53:09.516Z,3.60
2022-08-05T00:55:55.459Z,4.10
2022-08-05T00:58:27.440Z,3.13
2022-08-05T01:00:56.360Z,3.13
2022-08-05T01:03:28.177Z,2.97
2022-08-05T01:06:01.341Z,3.05
2022-08-05T01:08:43.378Z,2.60
2022-08-05T01:11:22.567Z,2.30
2022-08-05T01:14:08.466Z,2.38
2022-08-05T01:16:44.362Z,2.50
2022-08-05T01:19:36.766Z,2.35
2022-08-05T01:22:27.766Z,2.20
2022-08-05T01:25:14.872Z,2.63
2022-08-05T01:28:16.683Z,2.42
2022-08-05T01:30:55.172Z,2.38
2022-08-05T01:33:29.481Z,2.05
2022-08-05T01:36:12.950Z,2.80
2022-08-05T01:38:48.494Z,2.83
2022-08-05T01:41:21.891Z,2.70
2022-08-05T01:43:53.378Z,1.90
2022-08-05T01:46:42.646Z,2.22
2022-08-05T01:49:23.605Z,2.10
2022-08-05T01:51:58.127Z,2.17
2022-08-05T01:54:32.756Z,1.90
2022-08-05T01:58:18.881Z,2.05
2022-08-05T01:59:53.707Z,2.20
2022-08-05T02:02:26.047Z,2.03
2022-08-05T02:04:59.411Z,2.42
2022-08-05T02:07:30.393Z,2.10
2022-08-05T02:09:58.868Z,2.00
2022-08-05T02:12:35.699Z,1.90
2022-08-05T02:15:12.392Z,1.75
2022-08-05T02:18:30.686Z,2.17
2022-08-05T02:20:47.158Z,2.00
2022-08-05T02:23:18.905Z,2.20
2022-08-05T02:25:50.099Z,2.20
2022-08-05T02:28:28.807Z,2.65
2022-08-05T02:31:04.112Z,2.05
2022-08-05T02:33:38.839Z,2.15
2022-08-05T02:36:13.731Z,2.10
2022-08-05T02:38:53.303Z,1.70
2022-08-05T02:41:28.457Z,2.10
2022-08-05T02:44:12.204Z,2.17
2022-08-05T02:46:58.312Z,2.60
2022-08-05T02:49:36.354Z,2.25
2022-08-05T02:52:08.776Z,2.60
2022-08-05T02:54:42.313Z,2.20
2022-08-05T02:58:12.295Z,2.22
2022-08-05T03:00:10.419Z,2.00
2022-08-05T03:02:42.877Z,1.90
2022-08-05T03:05:14.707Z,2.30
2022-08-05T03:08:01.649Z,2.00
2022-08-05T03:10:34.050Z,2.00
2022-08-05T03:15:28.749Z,2.38
2022-08-05T03:17:59.501Z,2.25
2022-08-05T03:20:27.531Z,2.00
2022-08-05T03:22:57.533Z,2.10
2022-08-05T03:25:34.093Z,2.30
2022-08-05T03:28:18.690Z,1.95
2022-08-05T03:30:49.396Z,2.20
2022-08-05T03:33:19.276Z,2.30
2022-08-05T03:35:47.812Z,2.23
2022-08-05T03:38:16.169Z,2.10
2022-08-05T03:40:48.757Z,1.77
2022-08-05T03:44:08.019Z,2.65
2022-08-05T03:46:08.259Z,2.10
2022-08-05T03:48:37.718Z,1.98
2022-08-05T03:52:37.822Z,3.22
2022-08-05T03:55:50.984Z,1.90
2022-08-05T03:56:58.891Z,1.90
2022-08-05T03:59:46.762Z,2.10
2022-08-05T04:02:37.776Z,2.17
2022-08-05T04:05:10.343Z,2.45
2022-08-05T04:07:57.247Z,2.10
2022-08-05T04:10:30.820Z,1.90
2022-08-05T04:13:04.026Z,2.60
2022-08-05T04:15:36.162Z,2.08
2022-08-05T04:18:07.879Z,1.77
2022-08-05T04:20:41.387Z,2.40
2022-08-05T04:23:12.645Z,5.35
2022-08-05T04:25:57.287Z,6.97
2022-08-05T04:28:31.726Z,2.65
2022-08-05T04:31:00.785Z,4.47
2022-08-05T04:34:18.751Z,2.80
2022-08-05T04:36:45.619Z,2.88
2022-08-05T04:39:08.585Z,3.58
2022-08-05T04:41:37.907Z,3.08
2022-08-05T04:44:08.889Z,3.15
2022-08-05T04:46:40.410Z,3.15
2022-08-05T04:49:12.226Z,3.30
2022-08-05T04:51:44.478Z,3.20
2022-08-05T04:54:12.426Z,3.10
2022-08-05T04:56:40.548Z,3.00
2022-08-05T04:59:21.944Z,3.58
2022-08-05T05:02:07.035Z,2.95
2022-08-05T05:04:43.765Z,3.55
2022-08-05T05:07:15.962Z,3.57
2022-08-05T05:09:45.240Z,3.28
2022-08-05T05:12:13.124Z,3.60
2022-08-05T05:14:49.425Z,2.78
2022-08-05T05:17:23.770Z,3.70
2022-08-05T05:19:56.612Z,4.28
2022-08-05T05:22:26.883Z,3.10
2022-08-05T05:24:57.083Z,3.30
2022-08-05T05:27:41.385Z,3.80
2022-08-05T05:30:31.143Z,4.32
2022-08-05T05:33:09.207Z,4.13
2022-08-05T05:35:45.184Z,3.90
2022-08-05T05:38:15.015Z,4.43
2022-08-05T05:40:51.942Z,4.80
2022-08-05T05:43:27.630Z,4.70
2022-08-05T05:46:16.156Z,5.00
2022-08-05T05:48:48.862Z,4.77
2022-08-05T05:51:21.549Z,5.00
2022-08-05T05:53:58.343Z,4.53
2022-08-05T05:56:33.161Z,4.70
2022-08-05T05:59:05.741Z,5.38
2022-08-05T06:01:37.617Z,4.18
2022-08-05T06:04:11.460Z,3.97
2022-08-05T06:06:41.601Z,4.03
2022-08-05T06:09:17.300Z,3.97
2022-08-05T06:12:01.320Z,3.30
2022-08-05T06:14:30.637Z,3.97
2022-08-05T06:16:59.382Z,4.00
2022-08-05T06:19:34.811Z,3.60
2022-08-05T06:22:04.060Z,3.50
2022-08-05T06:24:34.032Z,4.13
2022-08-05T06:27:03.998Z,3.58
2022-08-05T06:29:46.909Z,3.72
2022-08-05T06:32:25.917Z,4.47
2022-08-05T06:34:58.235Z,3.88
2022-08-05T06:37:56.656Z,3.70
2022-08-05T06:40:18.267Z,3.70
2022-08-05T06:42:51.955Z,3.40
2022-08-05T06:46:03.099Z,2.88
2022-08-05T06:48:37.078Z,3.03
2022-08-05T06:50:58.269Z,3.30
2022-08-05T06:53:29.154Z,3.35
2022-08-05T06:55:59.828Z,3.60
2022-08-05T06:58:36.559Z,2.85
2022-08-05T07:01:06.454Z,3.45
2022-08-05T07:03:35.583Z,3.40
2022-08-05T07:06:06.169Z,3.78
2022-08-05T07:08:47.334Z,3.50
2022-08-05T07:11:22.339Z,2.90
2022-08-05T07:14:15.510Z,2.90
2022-08-05T07:18:08.589Z,3.50
2022-08-05T07:22:29.778Z,3.00
2022-08-05T07:25:22.024Z,2.90
2022-08-05T07:27:58.502Z,3.40
2022-08-05T07:30:33.796Z,3.30
2022-08-05T07:33:08.799Z,2.90
2022-08-05T07:36:02.192Z,2.87
2022-08-05T07:38:34.439Z,2.80
2022-08-05T07:42:06.764Z,2.97
2022-08-05T07:43:56.316Z,2.90
2022-08-05T07:46:26.483Z,2.87
2022-08-05T07:49:02.592Z,2.55
2022-08-05T07:51:40.896Z,2.80
2022-08-05T07:54:18.585Z,2.88
2022-08-05T07:57:01.197Z,2.50
2022-08-05T07:59:40.527Z,2.50
2022-08-05T08:02:17.024Z,2.10
2022-08-05T08:04:48.710Z,2.50
2022-08-05T08:07:18.086Z,2.20
2022-08-05T08:09:52.467Z,2.20
2022-08-05T08:12:37.082Z,2.00
2022-08-05T08:15:15.438Z,1.98
2022-08-05T08:17:49.854Z,2.05
2022-08-05T08:20:44.221Z,2.15
2022-08-05T08:24:01.044Z,2.03
2022-08-05T08:26:02.817Z,1.80
2022-08-05T08:28:36.849Z,1.90
2022-08-05T08:31:07.631Z,2.20
2022-08-05T08:33:37.776Z,2.22
2022-08-05T08:36:37.449Z,2.30
2022-08-05T08:38:56.111Z,2.13
2022-08-05T08:41:51.873Z,1.90
2022-08-05T08:45:22.578Z,1.83
2022-08-05T08:47:48.137Z,1.90
2022-08-05T08:50:23.043Z,1.97
2022-08-05T08:52:51.772Z,1.60
2022-08-05T08:55:31.999Z,2.00
2022-08-05T08:58:12.934Z,2.00
2022-08-05T09:00:42.669Z,1.90
2022-08-05T09:03:12.469Z,2.00
2022-08-05T09:06:07.833Z,1.95
2022-08-05T09:08:32.305Z,1.90
2022-08-05T09:11:00.788Z,1.90
2022-08-05T09:13:31.861Z,2.13
2022-08-05T09:16:18.325Z,2.10
2022-08-05T09:18:48.700Z,1.80
2022-08-05T09:21:20.837Z,1.80
2022-08-05T09:24:08.815Z,1.75
2022-08-05T09:26:38.181Z,1.80
2022-08-05T09:29:11.544Z,1.95
2022-08-05T09:32:41.581Z,2.03
2022-08-05T09:34:54.999Z,1.90
2022-08-05T09:38:12.310Z,1.70
2022-08-05T09:40:30.744Z,1.90
2022-08-05T09:43:01.136Z,1.88
2022-08-05T09:46:06.439Z,1.87
2022-08-05T09:48:30.144Z,1.80
2022-08-05T09:51:01.945Z,1.80
2022-08-05T09:53:54.506Z,1.80
2022-08-05T09:56:26.181Z,1.90
2022-08-05T09:58:58.986Z,1.88
2022-08-05T10:01:31.698Z,1.52
2022-08-05T10:04:09.976Z,1.60
2022-08-05T10:06:41.459Z,1.90
2022-08-05T10:09:27.781Z,1.90
2022-08-05T10:12:18.811Z,1.80
2022-08-05T10:15:13.931Z,1.83
2022-08-05T10:17:47.531Z,1.85
2022-08-05T10:20:25.783Z,1.77
2022-08-05T10:22:55.755Z,1.60
2022-08-05T10:25:26.598Z,1.90
2022-08-05T10:28:13.489Z,1.60
2022-08-05T10:32:51.033Z,1.52
2022-08-05T10:33:35.300Z,1.50
2022-08-05T10:36:05.470Z,1.55
2022-08-05T10:38:37.085Z,1.57
2022-08-05T10:41:23.624Z,1.60
2022-08-05T10:43:56.567Z,1.50
2022-08-05T10:46:45.200Z,1.85
2022-08-05T10:49:16.422Z,1.77
2022-08-05T10:51:48.605Z,1.92
2022-08-05T10:54:56.903Z,1.65
2022-08-05T10:57:29.566Z,1.70
2022-08-05T11:00:18.539Z,1.50
2022-08-05T11:03:24.372Z,1.70
2022-08-05T11:06:08.494Z,1.70
2022-08-05T11:09:16.684Z,1.60
2022-08-05T11:11:53.452Z,1.63
2022-08-05T11:14:56.312Z,1.90
2022-08-05T11:17:57.639Z,2.10
2022-08-05T11:20:43.658Z,1.83
2022-08-05T11:23:33.198Z,1.88
2022-08-05T11:26:08.784Z,1.63
2022-08-05T11:28:47.786Z,1.98
2022-08-05T11:31:57.570Z,1.83
2022-08-05T11:34:37.538Z,1.92
2022-08-05T11:37:06.100Z,1.80
2022-08-05T11:40:00.626Z,1.70
2022-08-05T11:42:40.574Z,1.98
2022-08-05T11:45:22.982Z,2.03
2022-08-05T11:47:55.276Z,1.90
2022-08-05T11:50:23.623Z,1.90
2022-08-05T11:52:57.659Z,1.92
2022-08-05T11:55:32.040Z,1.77
2022-08-05T11:58:09.744Z,1.80
2022-08-05T12:00:44.438Z,1.80
2022-08-05T12:03:29.308Z,1.90
2022-08-05T12:06:02.727Z,1.85
2022-08-05T12:08:32.761Z,2.00
2022-08-05T12:11:06.047Z,2.00
2022-08-05T12:13:48.839Z,2.03
2022-08-05T12:16:25.383Z,1.90
2022-08-05T12:18:55.493Z,2.00
2022-08-05T12:21:26.623Z,2.00
2022-08-05T12:24:04.451Z,1.70
2022-08-05T12:26:35.493Z,2.00
2022-08-05T12:29:05.077Z,1.90
2022-08-05T12:31:42.517Z,2.03
2022-08-05T12:34:21.476Z,1.98
2022-08-05T12:36:53.260Z,2.22
2022-08-05T12:39:21.693Z,2.30
2022-08-05T12:41:51.476Z,2.47
2022-08-05T12:44:33.744Z,1.90
2022-08-05T12:47:04.112Z,2.30
2022-08-05T12:50:03.835Z,1.95
2022-08-05T12:52:39.332Z,2.20
2022-08-05T12:55:23.221Z,1.80
2022-08-05T12:58:49.211Z,2.10
2022-08-05T13:02:01.084Z,1.88
2022-08-05T13:03:42.447Z,2.00
2022-08-05T13:06:16.054Z,1.90
2022-08-05T13:08:50.704Z,1.90
2022-08-05T13:12:01.696Z,1.92
2022-08-05T13:14:20.113Z,2.00
2022-08-05T13:16:54.765Z,2.30
2022-08-05T13:19:27.803Z,2.40
2022-08-05T13:22:28.314Z,2.35
2022-08-05T13:25:00.647Z,2.03
2022-08-05T13:27:38.327Z,2.65
2022-08-05T13:30:34.014Z,2.30
2022-08-05T13:32:57.199Z,2.17
2022-08-05T13:35:47.679Z,2.00
2022-08-05T13:38:20.071Z,2.25
2022-08-05T13:41:01.592Z,2.10
2022-08-05T13:43:45.689Z,2.00
2022-08-05T13:46:30.706Z,1.80
2022-08-05T13:49:10.477Z,2.00
2022-08-05T13:51:46.559Z,2.10
2022-08-05T13:54:16.145Z,1.90
2022-08-05T13:56:51.586Z,1.90
2022-08-05T13:59:23.984Z,2.10
2022-08-05T14:01:58.313Z,1.92
2022-08-05T14:04:49.660Z,1.90
2022-08-05T14:07:26.160Z,2.00
2022-08-05T14:10:11.860Z,1.92
2022-08-05T14:12:42.850Z,2.00
2022-08-05T14:16:05.835Z,2.03
2022-08-05T14:18:01.043Z,2.20
2022-08-05T14:20:31.933Z,1.98
2022-08-05T14:23:02.014Z,2.40
2022-08-05T14:25:30.606Z,2.33
2022-08-05T14:27:58.955Z,2.07
2022-08-05T14:30:28.353Z,2.35
2022-08-05T14:32:58.774Z,2.00
2022-08-05T14:35:37.237Z,2.10
2022-08-05T14:38:32.963Z,2.30
2022-08-05T14:41:07.772Z,2.17
2022-08-05T14:44:02.697Z,2.17
2022-08-05T14:46:29.738Z,2.40
2022-08-05T14:49:06.703Z,2.70
2022-08-05T14:51:37.677Z,2.75
2022-08-05T14:54:28.440Z,2.70
2022-08-05T14:56:57.038Z,3.22
2022-08-05T14:59:25.211Z,2.53
2022-08-05T15:01:58.080Z,2.70
2022-08-05T15:04:27.390Z,2.47
2022-08-05T15:06:57.325Z,2.50
2022-08-05T15:09:53.896Z,2.55
2022-08-05T15:12:16.558Z,2.72
2022-08-05T15:14:50.083Z,2.90
2022-08-05T15:17:46.815Z,2.95
2022-08-05T15:20:17.061Z,2.78
2022-08-05T15:22:46.470Z,3.15
2022-08-05T15:25:41.023Z,3.13
2022-08-05T15:28:14.325Z,3.08
2022-08-05T15:30:43.463Z,2.97
2022-08-05T15:33:12.107Z,3.17
2022-08-05T15:35:45.534Z,3.17
2022-08-05T15:38:35.980Z,2.60
2022-08-05T15:41:20.717Z,2.80
2022-08-05T15:43:49.748Z,2.80
2022-08-05T15:46:18.118Z,3.00
2022-08-05T15:48:57.896Z,2.70
2022-08-05T15:52:12.717Z,3.10
2022-08-05T15:54:18.450Z,2.90
2022-08-05T15:56:47.780Z,3.10
2022-08-05T15:59:21.681Z,2.75
2022-08-05T16:01:52.526Z,2.92
2022-08-05T16:04:25.192Z,2.60
2022-08-05T16:06:55.553Z,2.75
2022-08-05T16:09:24.331Z,2.60
2022-08-05T16:11:54.331Z,2.88
2022-08-05T16:14:22.523Z,2.78
2022-08-05T16:16:51.257Z,2.40
2022-08-05T16:20:03.552Z,2.80
2022-08-05T16:22:10.446Z,3.15
2022-08-05T16:24:41.223Z,2.80
2022-08-05T16:27:46.934Z,2.95
2022-08-05T16:30:25.827Z,2.33
2022-08-05T16:32:55.304Z,2.60
2022-08-05T16:35:27.591Z,3.40
2022-08-05T16:38:03.656Z,2.90
2022-08-05T16:40:47.867Z,2.92
2022-08-05T16:43:26.026Z,2.97
2022-08-05T16:46:06.295Z,2.70
2022-08-05T16:48:40.657Z,3.00
2022-08-05T16:51:10.437Z,2.78
2022-08-05T16:54:02.393Z,2.85
2022-08-05T16:56:30.078Z,2.78
2022-08-05T16:59:00.914Z,2.90
2022-08-05T17:01:52.895Z,2.88
2022-08-05T17:04:26.664Z,2.50
2022-08-05T17:06:55.531Z,2.85
2022-08-05T17:09:24.812Z,2.92
2022-08-05T17:11:59.290Z,2.70
2022-08-05T17:14:37.343Z,2.97
2022-08-05T17:17:09.321Z,2.83
2022-08-05T17:19:45.664Z,2.50
2022-08-05T17:22:25.101Z,2.63
2022-08-05T17:24:56.858Z,2.83
2022-08-05T17:27:34.460Z,2.88
2022-08-05T17:30:12.069Z,3.00
2022-08-05T17:32:47.475Z,2.72
2022-08-05T17:35:20.780Z,2.88
2022-08-05T17:37:49.233Z,2.78
2022-08-05T17:40:22.532Z,2.72
2022-08-05T17:42:52.927Z,2.85
2022-08-05T17:45:25.259Z,2.65
2022-08-05T17:48:07.940Z,2.97
2022-08-05T17:50:36.268Z,3.13
2022-08-05T17:53:08.518Z,2.95
2022-08-05T17:55:40.407Z,2.97
2022-08-05T17:58:11.318Z,3.45
2022-08-05T18:00:47.028Z,3.45
2022-08-05T18:03:56.417Z,4.10
2022-08-05T18:06:11.754Z,4.55
2022-08-05T18:08:45.786Z,5.10
2022-08-05T18:11:23.976Z,4.68
2022-08-05T18:13:54.574Z,4.30
2022-08-05T18:16:24.752Z,5.18
2022-08-05T18:18:52.782Z,5.32
2022-08-05T18:21:25.848Z,5.05
2022-08-05T18:23:54.760Z,4.75
2022-08-05T18:26:27.824Z,5.07
2022-08-05T18:29:00.334Z,4.90
2022-08-05T18:31:33.761Z,4.57
2022-08-05T18:34:06.120Z,5.53
2022-08-05T18:36:39.910Z,4.97
2022-08-05T18:39:22.293Z,5.47
2022-08-05T18:42:04.789Z,6.03
2022-08-05T18:44:49.295Z,6.88
2022-08-05T18:47:26.705Z,6.35
2022-08-05T19:46:41.410Z,7.05
2022-08-05T19:49:17.049Z,7.28
2022-08-05T19:52:09.128Z,7.53
2022-08-05T19:54:35.012Z,7.50
2022-08-05T19:57:06.395Z,7.80
2022-08-05T19:59:55.859Z,7.50
2022-08-05T20:02:27.558Z,7.10
2022-08-05T20:04:58.353Z,7.10
2022-08-05T20:07:46.166Z,8.20
2022-08-05T20:10:15.133Z,8.57
2022-08-05T20:12:47.676Z,8.80
2022-08-05T20:15:48.783Z,5.65
2022-08-05T20:18:09.697Z,7.75
2022-08-05T20:20:44.743Z,8.18
2022-08-05T20:23:12.831Z,8.80
2022-08-05T20:25:41.256Z,7.60
2022-08-05T20:28:13.754Z,6.40
2022-08-05T20:30:44.685Z,7.07
2022-08-05T20:33:12.975Z,6.63
2022-08-05T20:35:45.475Z,8.13
2022-08-05T20:38:14.446Z,8.43
2022-08-05T20:40:50.810Z,8.50
2022-08-05T20:43:33.403Z,8.40
2022-08-05T20:46:06.835Z,8.02
2022-08-05T20:48:36.340Z,7.88
2022-08-05T20:51:07.190Z,8.20
2022-08-05T20:53:40.893Z,8.75
2022-08-05T20:56:09.859Z,9.05
2022-08-05T20:58:37.834Z,8.52
2022-08-05T21:01:05.827Z,8.80
2022-08-05T21:03:34.589Z,7.20
2022-08-05T21:06:03.068Z,7.72
2022-08-05T21:08:41.631Z,7.43
2022-08-05T21:11:11.990Z,7.00
2022-08-05T21:13:48.241Z,7.45
2022-08-05T21:16:29.679Z,7.60
2022-08-05T21:18:59.983Z,7.03
2022-08-05T21:21:43.785Z,8.00
2022-08-05T21:24:19.683Z,7.88
2022-08-05T21:26:53.679Z,7.45
2022-08-05T21:29:31.913Z,6.35
2022-08-05T21:32:01.282Z,6.57
2022-08-05T21:34:29.232Z,7.13
2022-08-05T21:36:59.834Z,7.57
2022-08-05T21:39:29.201Z,7.10
2022-08-05T21:42:01.155Z,6.03
2022-08-05T21:44:30.453Z,5.60
2022-08-05T21:46:59.130Z,4.90
2022-08-05T21:49:59.336Z,3.80
2022-08-05T21:52:22.797Z,4.07
2022-08-05T21:55:06.187Z,3.55
2022-08-05T21:57:35.334Z,3.15
2022-08-05T22:00:11.209Z,2.95
2022-08-05T22:02:42.986Z,3.47
2022-08-05T22:05:11.652Z,3.45
2022-08-05T22:07:58.136Z,2.63
2022-08-05T22:10:29.301Z,2.85
2022-08-05T22:13:58.854Z,2.70
2022-08-05T22:16:00.383Z,2.42
2022-08-05T22:18:29.998Z,2.08
2022-08-05T22:20:59.993Z,2.28
2022-08-05T22:24:02.075Z,2.00
2022-08-05T22:26:55.562Z,1.90
2022-08-05T22:29:26.369Z,1.90
2022-08-05T22:31:59.765Z,1.70
2022-08-05T22:34:31.046Z,1.95
2022-08-05T22:37:01.048Z,1.65
2022-08-05T22:39:34.444Z,1.92
2022-08-05T22:42:12.420Z,1.02
2022-08-05T22:44:56.209Z,1.67
2022-08-05T22:47:28.897Z,1.48
2022-08-05T22:50:19.482Z,1.70
2022-08-05T22:52:48.575Z,1.45
2022-08-05T22:55:19.070Z,1.40
2022-08-05T22:57:50.050Z,1.40
2022-08-05T23:00:21.091Z,1.60
2022-08-05T23:02:50.173Z,1.42
2022-08-05T23:05:19.012Z,1.45
2022-08-05T23:07:50.507Z,1.85
2022-08-05T23:10:20.022Z,1.70
2022-08-05T23:12:51.669Z,1.45
2022-08-05T23:15:26.902Z,1.70
2022-08-05T23:18:00.785Z,1.65
2022-08-05T23:20:31.278Z,1.90
2022-08-05T23:23:00.262Z,1.70
2022-08-05T23:25:51.905Z,1.98
2022-08-05T23:28:21.223Z,1.60
2022-08-05T23:30:53.124Z,1.60
2022-08-05T23:34:02.721Z,1.80
2022-08-05T23:36:11.073Z,2.00
2022-08-05T23:38:42.636Z,1.85
2022-08-05T23:41:11.095Z,1.50
2022-08-05T23:44:05.999Z,1.65
2022-08-05T23:46:28.959Z,2.05
2022-08-05T23:49:00.412Z,1.60
2022-08-05T23:51:53.893Z,1.50
2022-08-05T23:54:25.526Z,1.45
2022-08-05T23:56:55.276Z,1.58
2022-08-05T23:59:37.378Z,1.95
